createdAt,value
2022-08-01T08:55:55.319Z,93.9
2022-08-01T09:00:14.559Z,95.2
2022-08-01T09:02:29.702Z,95.4
2022-08-01T09:04:44.386Z,96.1
2022-08-01T09:06:59.356Z,96.8
2022-08-01T09:09:14.468Z,97.6
2022-08-01T09:11:29.253Z,97.9
2022-08-01T09:15:59.670Z,99.9
2022-08-01T09:18:14.531Z,99.8
2022-08-01T09:20:41.433Z,99.5
2022-08-01T09:23:00.977Z,100.4
2022-08-01T09:25:16.155Z,99.8
2022-08-01T09:27:34.620Z,101.8
2022-08-01T09:30:00.885Z,101.7
2022-08-01T09:32:14.198Z,102.2
2022-08-01T09:34:25.301Z,102.8
2022-08-01T09:36:40.174Z,103.6
2022-08-01T09:38:55.091Z,103.4
2022-08-01T09:41:09.987Z,103.6
2022-08-01T09:43:25.938Z,104.2
2022-08-01T09:45:43.839Z,104.9
2022-08-01T09:47:58.163Z,105.5
2022-08-01T09:50:22.792Z,106.1
2022-08-01T09:53:01.441Z,106.3
2022-08-01T09:55:17.710Z,107.6
2022-08-01T09:57:32.934Z,106.9
2022-08-01T09:59:58.132Z,107.8
2022-08-01T10:02:15.443Z,108.2
2022-08-01T10:04:30.236Z,108.8
2022-08-01T10:06:45.434Z,109
2022-08-01T10:09:01.201Z,109.4
2022-08-01T10:11:16.629Z,109.3
2022-08-01T10:13:36.895Z,109.2
2022-08-01T10:15:45.720Z,109.4
2022-08-01T10:18:16.312Z,109.8
2022-08-01T10:23:14.652Z,110.9
2022-08-01T10:25:41.698Z,111.6
2022-08-01T10:27:55.270Z,112.7
2022-08-01T10:30:40.070Z,113.8
2022-08-01T10:32:55.299Z,114.9
2022-08-01T10:35:46.127Z,113.8
2022-08-01T10:37:54.544Z,113.1
2022-08-01T10:40:29.729Z,114.9
2022-08-01T10:42:34.326Z,115.3
2022-08-01T10:44:49.157Z,115.4
2022-08-01T10:49:22.884Z,114.3
2022-08-01T10:51:54.781Z,114.3
2022-08-01T10:54:14.209Z,115.2
2022-08-01T10:56:29.002Z,114.2
2022-08-01T10:58:44.032Z,113.9
2022-08-01T11:01:08.698Z,115.3
2022-08-01T11:03:35.950Z,114.6
2022-08-01T11:08:15.308Z,114.1
2022-08-01T11:12:45.374Z,114.6
2022-08-01T11:15:12.706Z,114.2
2022-08-01T11:17:27.326Z,114.8
2022-08-01T11:19:42.140Z,114.4
2022-08-01T11:22:46.656Z,113.7
2022-08-01T11:25:01.570Z,114.4
2022-08-01T11:27:43.041Z,114.3
2022-08-01T11:30:13.892Z,115.4
2022-08-01T11:32:28.653Z,115.8
2022-08-01T11:34:57.981Z,115.3
2022-08-01T11:37:30.768Z,115.1
2022-08-01T11:39:45.133Z,115.2
2022-08-01T11:41:59.992Z,114.8
2022-08-01T11:46:29.710Z,115.9
2022-08-01T11:48:44.486Z,114.1
2022-08-01T11:51:01.973Z,114.8
2022-08-01T11:53:14.144Z,114.8
2022-08-01T11:55:31.320Z,115.1
2022-08-01T11:57:43.886Z,115.8
2022-08-01T12:00:08.279Z,115.4
2022-08-01T12:02:30.005Z,115.6
2022-08-01T12:04:36.254Z,115.4
2022-08-01T12:06:51.142Z,116.6
2022-08-01T12:09:09.291Z,116.8
2022-08-01T12:11:20.754Z,116.9
2022-08-01T12:13:35.745Z,116.8
2022-08-01T12:15:53.509Z,116.8
2022-08-01T12:18:05.291Z,117.3
2022-08-01T12:20:20.156Z,117.6
2022-08-01T12:22:34.991Z,122.1
2022-08-01T12:24:50.055Z,118.2
2022-08-01T12:27:04.843Z,118.8
2022-08-01T12:29:19.533Z,117.9
2022-08-01T12:31:34.506Z,118
2022-08-01T12:33:49.277Z,121.4
2022-08-01T12:36:04.115Z,123.4
2022-08-01T12:38:19.052Z,121.6
2022-08-01T12:40:33.772Z,118.8
2022-08-01T12:42:48.798Z,118.7
2022-08-01T12:45:03.577Z,118.4
2022-08-01T12:47:18.613Z,118.4
2022-08-01T12:49:33.245Z,123.5
2022-08-01T12:51:57.346Z,123.8
2022-08-01T12:54:02.916Z,123.7
2022-08-01T13:00:47.551Z,124.3
2022-08-01T13:05:17.201Z,124.6
2022-08-01T13:07:37.473Z,124.8
2022-08-01T13:09:47.673Z,124.6
2022-08-01T13:12:06.346Z,124.6
2022-08-01T13:14:24.055Z,125.1
2022-08-01T13:16:55.348Z,124.4
2022-08-01T13:19:00.142Z,124.6
2022-08-01T13:21:15.001Z,124.6
2022-08-01T13:24:08.240Z,124.8
2022-08-01T13:26:22.469Z,124.6
2022-08-01T13:28:38.936Z,124.8
2022-08-01T13:30:53.970Z,125
2022-08-01T13:33:08.786Z,125.1
2022-08-01T13:35:23.535Z,124.8
2022-08-01T13:37:39.231Z,124.6
2022-08-01T13:39:53.369Z,124.3
2022-08-01T13:42:08.439Z,123.8
2022-08-01T13:44:31.988Z,123.8
2022-08-01T13:46:49.579Z,123.5
2022-08-01T13:51:39.273Z,123.6
2022-08-01T13:53:54.213Z,123.8
2022-08-01T13:58:23.916Z,122.9
2022-08-01T14:00:38.706Z,122.9
2022-08-01T14:05:08.353Z,123.3
2022-08-01T14:07:23.209Z,123.1
2022-08-01T14:09:37.968Z,122.6
2022-08-01T14:12:22.097Z,121.6
2022-08-01T14:14:37.091Z,120.3
2022-08-01T14:16:56.326Z,119.7
2022-08-01T14:21:25.974Z,120.8
2022-08-01T14:23:41.411Z,120.4
2022-08-01T14:26:22.530Z,119.9
2022-08-01T14:31:06.254Z,118.6
2022-08-01T14:35:36.873Z,118.3
2022-08-01T14:38:34.277Z,118.9
2022-08-01T14:40:49.007Z,118.3
2022-08-01T14:43:03.596Z,117.3
2022-08-01T14:45:21.868Z,117.4
2022-08-01T14:47:38.409Z,116.4
2022-08-01T14:49:53.267Z,115.9
2022-08-01T14:54:26.928Z,115.7
2022-08-01T14:56:37.737Z,114.4
2022-08-01T14:58:52.656Z,115.1
2022-08-01T15:01:08.287Z,114.4
2022-08-01T15:05:38.440Z,112.9
2022-08-01T15:07:55.781Z,112.7
2022-08-01T15:12:25.406Z,111.4
2022-08-01T15:14:40.212Z,110.6
2022-08-01T15:19:10.035Z,109
2022-08-01T15:23:42.647Z,106.2
2022-08-01T15:25:58.910Z,104.9
2022-08-01T15:28:13.766Z,105.1
2022-08-01T15:32:43.647Z,103.4
2022-08-01T15:34:58.323Z,102.8
2022-08-01T15:39:28.120Z,102.1
2022-08-01T15:41:42.914Z,99.4
2022-08-01T15:43:57.770Z,100.9
2022-08-01T15:46:30.527Z,99.5
2022-08-01T15:48:45.326Z,98.1
2022-08-01T15:55:29.880Z,95.8
2022-08-01T15:57:44.817Z,95.5
2022-08-01T15:59:59.551Z,94.7
